ETD7XH OMAA-OLBA
Flight info
| Callsign | ETD7XH |
|---|---|
| Flight time | 3h 32m |
| Altitude | 36000 |
| Route | ATUDO M318 GOLGU M550 ODBUK DCT SITUK M321 KIA T503 OVANO L768 FIRAS R655 LEBOR UR655 CAK |
| Aircraft | A20N/M-SDE2E3FGHIRWXY/LB1 |
Departure
| Time | 2026-05-06 06:49 |
|---|---|
| Airport | Zayed International Airport (OMAA) |
Arrival
| Time | 2026-05-06 10:22 |
|---|---|
| Airport | Beirut Rafic Hariri International Airport (OLBA) |
| Time | Latitude | Longitude | Altitude | Speed | Heading |
|---|---|---|---|---|---|
| 2026-05-06 06:21 | 24.44851 | 54.63744 | 91 ft | 0 kts | 338° |
| 2026-05-06 06:41 | 24.44841 | 54.63749 | 92 ft | 2 kts | 338° |
| 2026-05-06 06:42 | 24.44827 | 54.63755 | 92 ft | 2 kts | 338° |
| 2026-05-06 06:42 | 24.44815 | 54.63760 | 92 ft | 2 kts | 338° |
| 2026-05-06 06:42 | 24.44801 | 54.63766 | 92 ft | 2 kts | 338° |
| 2026-05-06 06:42 | 24.44787 | 54.63773 | 92 ft | 2 kts | 338° |
| 2026-05-06 06:43 | 24.44779 | 54.63776 | 92 ft | 2 kts | 336° |
| 2026-05-06 06:43 | 24.44766 | 54.63786 | 92 ft | 2 kts | 317° |
| 2026-05-06 06:43 | 24.44756 | 54.63798 | 92 ft | 2 kts | 303° |
| 2026-05-06 06:43 | 24.44749 | 54.63813 | 92 ft | 2 kts | 288° |
| 2026-05-06 06:44 | 24.44746 | 54.63829 | 92 ft | 2 kts | 274° |
| 2026-05-06 06:44 | 24.44747 | 54.63845 | 92 ft | 2 kts | 259° |
| 2026-05-06 06:44 | 24.44750 | 54.63858 | 92 ft | 0 kts | 247° |
| 2026-05-06 06:44 | 24.44753 | 54.63865 | 92 ft | 0 kts | 244° |
| 2026-05-06 06:46 | 24.44752 | 54.63862 | 91 ft | 0 kts | 244° |
| 2026-05-06 06:46 | 24.44744 | 54.63843 | 91 ft | 4 kts | 247° |
| 2026-05-06 06:47 | 24.44725 | 54.63796 | 91 ft | 8 kts | 243° |
| 2026-05-06 06:47 | 24.44679 | 54.63741 | 91 ft | 11 kts | 217° |
| 2026-05-06 06:47 | 24.44607 | 54.63681 | 91 ft | 14 kts | 217° |
| 2026-05-06 06:47 | 24.44518 | 54.63611 | 91 ft | 16 kts | 217° |
| 2026-05-06 06:48 | 24.44441 | 54.63554 | 92 ft | 10 kts | 192° |
| 2026-05-06 06:48 | 24.44390 | 54.63588 | 91 ft | 0 kts | 126° |
| 2026-05-06 06:48 | 24.44389 | 54.63589 | 91 ft | 0 kts | 127° |
| 2026-05-06 06:48 | 24.44300 | 54.63717 | 92 ft | 53 kts | 128° |
| 2026-05-06 06:49 | 24.43937 | 54.64227 | 92 ft | 114 kts | 128° |
| 2026-05-06 06:49 | 24.43334 | 54.65078 | 93 ft | 163 kts | 130° |
| 2026-05-06 06:49 | 24.42597 | 54.66099 | 453 ft | 174 kts | 129° |
| 2026-05-06 06:49 | 24.41858 | 54.67137 | 1025 ft | 176 kts | 128° |
| 2026-05-06 06:50 | 24.41120 | 54.68196 | 1651 ft | 177 kts | 129° |
| 2026-05-06 06:50 | 24.40358 | 54.69274 | 2078 ft | 180 kts | 128° |
| 2026-05-06 06:50 | 24.39566 | 54.70395 | 2328 ft | 193 kts | 127° |
| 2026-05-06 06:50 | 24.38707 | 54.71606 | 2590 ft | 206 kts | 127° |
| 2026-05-06 06:51 | 24.37797 | 54.72898 | 2817 ft | 223 kts | 128° |
| 2026-05-06 06:51 | 24.36798 | 54.74305 | 3094 ft | 239 kts | 128° |
| 2026-05-06 06:51 | 24.35750 | 54.75775 | 3598 ft | 247 kts | 127° |
| 2026-05-06 06:51 | 24.34695 | 54.77260 | 4221 ft | 249 kts | 127° |
| 2026-05-06 06:52 | 24.33625 | 54.78764 | 4862 ft | 251 kts | 127° |
| 2026-05-06 06:52 | 24.32536 | 54.80294 | 5496 ft | 254 kts | 128° |
| 2026-05-06 06:52 | 24.31450 | 54.81820 | 6168 ft | 256 kts | 128° |
| 2026-05-06 06:52 | 24.30341 | 54.83379 | 6857 ft | 258 kts | 128° |
| 2026-05-06 06:53 | 24.29225 | 54.84940 | 7512 ft | 262 kts | 127° |
| 2026-05-06 06:53 | 24.28093 | 54.86526 | 8150 ft | 266 kts | 126° |
| 2026-05-06 06:53 | 24.27238 | 54.88309 | 8759 ft | 268 kts | 101° |
| 2026-05-06 06:53 | 24.27282 | 54.90311 | 9378 ft | 269 kts | 71° |
| 2026-05-06 06:54 | 24.28236 | 54.92070 | 10012 ft | 271 kts | 43° |
| 2026-05-06 06:54 | 24.29769 | 54.93257 | 10590 ft | 276 kts | 23° |
| 2026-05-06 06:54 | 24.31669 | 54.93689 | 10876 ft | 292 kts | 357° |
| 2026-05-06 06:54 | 24.33682 | 54.93111 | 11164 ft | 309 kts | 332° |
| 2026-05-06 06:55 | 24.35359 | 54.91556 | 11439 ft | 326 kts | 306° |
| 2026-05-06 06:55 | 24.36259 | 54.89190 | 11708 ft | 343 kts | 278° |
| 2026-05-06 06:55 | 24.36108 | 54.86534 | 11986 ft | 359 kts | 258° |
| 2026-05-06 06:55 | 24.35434 | 54.83816 | 12289 ft | 372 kts | 254° |
| 2026-05-06 06:56 | 24.34671 | 54.81080 | 12783 ft | 378 kts | 253° |
| 2026-05-06 06:56 | 24.33913 | 54.78320 | 13400 ft | 380 kts | 254° |
| 2026-05-06 06:56 | 24.33175 | 54.75541 | 13986 ft | 382 kts | 255° |
| 2026-05-06 06:56 | 24.32438 | 54.72707 | 14569 ft | 385 kts | 255° |
| 2026-05-06 06:57 | 24.31718 | 54.69902 | 15143 ft | 387 kts | 255° |
| 2026-05-06 06:57 | 24.30986 | 54.67041 | 15715 ft | 390 kts | 255° |
| 2026-05-06 06:57 | 24.30254 | 54.64171 | 16282 ft | 392 kts | 255° |
| 2026-05-06 06:57 | 24.29500 | 54.61248 | 16845 ft | 395 kts | 253° |
| 2026-05-06 06:58 | 24.28366 | 54.58508 | 17361 ft | 398 kts | 238° |
| 2026-05-06 06:58 | 24.26604 | 54.56161 | 17917 ft | 400 kts | 226° |
| 2026-05-06 06:58 | 24.24620 | 54.54029 | 18471 ft | 402 kts | 226° |
| 2026-05-06 06:58 | 24.22848 | 54.51648 | 18974 ft | 404 kts | 237° |
| 2026-05-06 06:59 | 24.21380 | 54.48989 | 19521 ft | 406 kts | 241° |
| 2026-05-06 06:59 | 24.20009 | 54.46314 | 20041 ft | 408 kts | 242° |
| 2026-05-06 06:59 | 24.18617 | 54.43567 | 20558 ft | 410 kts | 242° |
| 2026-05-06 06:59 | 24.17227 | 54.40833 | 21061 ft | 413 kts | 242° |
| 2026-05-06 07:00 | 24.15837 | 54.38112 | 21561 ft | 415 kts | 241° |
| 2026-05-06 07:00 | 24.14422 | 54.35351 | 22055 ft | 417 kts | 241° |
| 2026-05-06 07:00 | 24.13004 | 54.32585 | 22543 ft | 419 kts | 241° |
| 2026-05-06 07:00 | 24.11568 | 54.29782 | 23028 ft | 421 kts | 241° |
| 2026-05-06 07:01 | 24.10125 | 54.26974 | 23504 ft | 423 kts | 241° |
| 2026-05-06 07:01 | 24.08684 | 54.24175 | 23963 ft | 425 kts | 241° |
| 2026-05-06 07:01 | 24.07229 | 54.21356 | 24418 ft | 427 kts | 241° |
| 2026-05-06 07:01 | 24.05769 | 54.18532 | 24866 ft | 429 kts | 241° |
| 2026-05-06 07:02 | 24.04290 | 54.15675 | 25304 ft | 431 kts | 241° |
| 2026-05-06 07:02 | 24.02815 | 54.12831 | 25722 ft | 432 kts | 241° |
| 2026-05-06 07:02 | 24.01324 | 54.09953 | 26132 ft | 434 kts | 241° |
| 2026-05-06 07:02 | 23.99834 | 54.07075 | 26521 ft | 435 kts | 241° |
| 2026-05-06 07:03 | 23.98342 | 54.04213 | 26892 ft | 437 kts | 241° |
| 2026-05-06 07:03 | 23.96811 | 54.01300 | 27258 ft | 439 kts | 241° |
| 2026-05-06 07:03 | 23.95301 | 53.98437 | 27607 ft | 440 kts | 241° |
| 2026-05-06 07:03 | 23.93759 | 53.95519 | 27952 ft | 441 kts | 241° |
| 2026-05-06 07:04 | 23.92225 | 53.92617 | 28283 ft | 442 kts | 241° |
| 2026-05-06 07:04 | 23.90688 | 53.89714 | 28623 ft | 443 kts | 241° |
| 2026-05-06 07:04 | 23.89139 | 53.86797 | 29046 ft | 441 kts | 241° |
| 2026-05-06 07:04 | 23.87606 | 53.83934 | 29440 ft | 440 kts | 241° |
| 2026-05-06 07:05 | 23.86052 | 53.81032 | 29753 ft | 440 kts | 241° |
| 2026-05-06 07:05 | 23.84504 | 53.78134 | 30072 ft | 440 kts | 242° |
| 2026-05-06 07:05 | 23.82967 | 53.75247 | 30439 ft | 439 kts | 242° |
| 2026-05-06 07:05 | 23.81433 | 53.72364 | 30832 ft | 436 kts | 242° |
| 2026-05-06 07:06 | 23.79933 | 53.69544 | 31213 ft | 434 kts | 241° |
| 2026-05-06 07:06 | 23.78421 | 53.66703 | 31585 ft | 432 kts | 241° |
| 2026-05-06 07:06 | 23.76900 | 53.63849 | 31941 ft | 430 kts | 241° |
| 2026-05-06 07:06 | 23.75422 | 53.61077 | 32272 ft | 428 kts | 241° |
| 2026-05-06 07:07 | 23.73910 | 53.58245 | 32601 ft | 426 kts | 241° |
| 2026-05-06 07:07 | 23.72430 | 53.55471 | 32904 ft | 425 kts | 241° |
| 2026-05-06 07:07 | 23.70934 | 53.52669 | 33203 ft | 423 kts | 241° |
| 2026-05-06 07:07 | 23.69459 | 53.49893 | 33495 ft | 422 kts | 241° |
| 2026-05-06 07:08 | 23.67990 | 53.47116 | 33780 ft | 420 kts | 241° |
| 2026-05-06 07:08 | 23.66536 | 53.44365 | 34048 ft | 419 kts | 241° |
| 2026-05-06 07:08 | 23.65084 | 53.41622 | 34270 ft | 418 kts | 241° |
| 2026-05-06 07:08 | 23.63621 | 53.38862 | 34437 ft | 419 kts | 241° |
| 2026-05-06 07:09 | 23.62177 | 53.36139 | 34587 ft | 420 kts | 241° |
| 2026-05-06 07:09 | 23.60704 | 53.33360 | 34748 ft | 420 kts | 240° |
| 2026-05-06 07:09 | 23.59251 | 53.30613 | 34911 ft | 421 kts | 240° |
| 2026-05-06 07:09 | 23.57786 | 53.27844 | 35063 ft | 421 kts | 240° |
| 2026-05-06 07:10 | 23.56333 | 53.25104 | 35204 ft | 422 kts | 240° |
| 2026-05-06 07:10 | 23.54858 | 53.22329 | 35342 ft | 422 kts | 240° |
| 2026-05-06 07:10 | 23.53388 | 53.19567 | 35476 ft | 423 kts | 240° |
| 2026-05-06 07:10 | 23.51902 | 53.16777 | 35603 ft | 423 kts | 240° |
| 2026-05-06 07:11 | 23.50442 | 53.14041 | 35721 ft | 423 kts | 240° |
| 2026-05-06 07:11 | 23.48942 | 53.11231 | 35825 ft | 422 kts | 240° |
| 2026-05-06 07:11 | 23.47496 | 53.08525 | 35823 ft | 415 kts | 240° |
| 2026-05-06 07:12 | 23.44599 | 53.03112 | 35836 ft | 412 kts | 240° |
| 2026-05-06 07:12 | 23.41676 | 52.97651 | 35844 ft | 412 kts | 240° |
| 2026-05-06 07:13 | 23.38838 | 52.92232 | 35850 ft | 412 kts | 242° |
| 2026-05-06 07:13 | 23.36062 | 52.86790 | 35855 ft | 412 kts | 242° |
| 2026-05-06 07:14 | 23.33286 | 52.81368 | 35858 ft | 412 kts | 242° |
| 2026-05-06 07:14 | 23.30483 | 52.75914 | 35859 ft | 412 kts | 241° |
| 2026-05-06 07:15 | 23.27702 | 52.70512 | 35860 ft | 412 kts | 241° |
| 2026-05-06 07:15 | 23.24901 | 52.65083 | 35860 ft | 412 kts | 241° |
| 2026-05-06 07:16 | 23.22102 | 52.59662 | 35860 ft | 412 kts | 241° |
| 2026-05-06 07:16 | 23.19358 | 52.54194 | 35860 ft | 412 kts | 244° |
| 2026-05-06 07:17 | 23.17076 | 52.48510 | 35860 ft | 411 kts | 249° |
| 2026-05-06 07:17 | 23.15181 | 52.42652 | 35860 ft | 411 kts | 251° |
| 2026-05-06 07:18 | 23.13307 | 52.36745 | 35860 ft | 411 kts | 251° |
| 2026-05-06 07:18 | 23.11455 | 52.30878 | 35860 ft | 411 kts | 251° |
| 2026-05-06 07:19 | 23.09598 | 52.25008 | 35859 ft | 412 kts | 250° |
| 2026-05-06 07:19 | 23.07720 | 52.19105 | 35859 ft | 412 kts | 250° |
| 2026-05-06 07:20 | 23.05852 | 52.13250 | 35860 ft | 412 kts | 250° |
| 2026-05-06 07:20 | 23.03967 | 52.07365 | 35860 ft | 412 kts | 250° |
| 2026-05-06 07:21 | 23.02090 | 52.01502 | 35860 ft | 412 kts | 250° |
| 2026-05-06 07:21 | 23.00212 | 51.95602 | 35860 ft | 412 kts | 250° |
| 2026-05-06 07:22 | 22.98338 | 51.89728 | 35860 ft | 412 kts | 250° |
| 2026-05-06 07:22 | 22.96455 | 51.83858 | 35859 ft | 412 kts | 250° |
| 2026-05-06 07:23 | 22.94577 | 51.78013 | 35858 ft | 412 kts | 250° |
| 2026-05-06 07:23 | 22.92691 | 51.72161 | 35858 ft | 413 kts | 250° |
| 2026-05-06 07:24 | 22.90793 | 51.66282 | 35858 ft | 413 kts | 250° |
| 2026-05-06 07:24 | 22.88881 | 51.60406 | 35858 ft | 413 kts | 250° |
| 2026-05-06 07:25 | 22.86965 | 51.54548 | 35858 ft | 413 kts | 250° |
| 2026-05-06 07:25 | 22.85104 | 51.48689 | 35858 ft | 413 kts | 252° |
| 2026-05-06 07:26 | 22.83673 | 51.42653 | 35859 ft | 413 kts | 258° |
| 2026-05-06 07:26 | 22.82578 | 51.36514 | 35858 ft | 413 kts | 258° |
| 2026-05-06 07:27 | 22.81499 | 51.30414 | 35859 ft | 414 kts | 258° |
| 2026-05-06 07:27 | 22.80416 | 51.24296 | 35858 ft | 414 kts | 258° |
| 2026-05-06 07:28 | 22.79385 | 51.18178 | 35858 ft | 414 kts | 260° |
| 2026-05-06 07:28 | 22.78776 | 51.08784 | 35859 ft | 416 kts | 268° |
| 2026-05-06 07:29 | 22.79095 | 51.02548 | 35860 ft | 417 kts | 272° |
| 2026-05-06 07:29 | 22.79621 | 50.96274 | 35864 ft | 417 kts | 272° |
| 2026-05-06 07:30 | 22.80147 | 50.90028 | 35868 ft | 417 kts | 272° |
| 2026-05-06 07:30 | 22.80672 | 50.83752 | 35874 ft | 417 kts | 272° |
| 2026-05-06 07:31 | 22.81190 | 50.77523 | 35877 ft | 417 kts | 272° |
| 2026-05-06 07:31 | 22.81710 | 50.71250 | 35878 ft | 417 kts | 272° |
| 2026-05-06 07:32 | 22.82226 | 50.64993 | 35879 ft | 417 kts | 272° |
| 2026-05-06 07:32 | 22.82740 | 50.58732 | 35879 ft | 417 kts | 272° |
| 2026-05-06 07:33 | 22.83251 | 50.52468 | 35879 ft | 417 kts | 272° |
| 2026-05-06 07:33 | 22.83759 | 50.46222 | 35879 ft | 417 kts | 272° |
| 2026-05-06 07:34 | 22.84266 | 50.39955 | 35879 ft | 417 kts | 272° |
| 2026-05-06 07:34 | 22.84770 | 50.33696 | 35880 ft | 417 kts | 272° |
| 2026-05-06 07:35 | 22.85271 | 50.27429 | 35878 ft | 417 kts | 272° |
| 2026-05-06 07:35 | 22.85767 | 50.21189 | 35878 ft | 417 kts | 272° |
| 2026-05-06 07:36 | 22.86262 | 50.14948 | 35878 ft | 417 kts | 272° |
| 2026-05-06 07:36 | 22.86756 | 50.08686 | 35880 ft | 417 kts | 272° |
| 2026-05-06 07:37 | 22.87249 | 50.02404 | 35887 ft | 417 kts | 272° |
| 2026-05-06 07:37 | 22.87731 | 49.96256 | 35898 ft | 417 kts | 272° |
| 2026-05-06 07:38 | 22.88216 | 49.90003 | 35911 ft | 417 kts | 272° |
| 2026-05-06 07:38 | 22.88699 | 49.83743 | 35922 ft | 417 kts | 272° |
| 2026-05-06 07:39 | 22.89184 | 49.77439 | 35927 ft | 417 kts | 272° |
| 2026-05-06 07:39 | 22.89661 | 49.71221 | 35929 ft | 416 kts | 272° |
| 2026-05-06 07:40 | 22.90137 | 49.64957 | 35930 ft | 416 kts | 272° |
| 2026-05-06 07:40 | 22.90610 | 49.58700 | 35930 ft | 416 kts | 272° |
| 2026-05-06 07:41 | 22.91080 | 49.52462 | 35930 ft | 416 kts | 272° |
| 2026-05-06 07:41 | 22.91550 | 49.46187 | 35930 ft | 416 kts | 272° |
| 2026-05-06 07:42 | 22.92015 | 49.39955 | 35930 ft | 416 kts | 272° |
| 2026-05-06 07:42 | 22.92480 | 49.33673 | 35932 ft | 416 kts | 271° |
| 2026-05-06 07:43 | 22.92940 | 49.27433 | 35931 ft | 416 kts | 271° |
| 2026-05-06 07:43 | 22.93398 | 49.21187 | 35931 ft | 415 kts | 271° |
| 2026-05-06 07:44 | 22.93855 | 49.14924 | 35931 ft | 415 kts | 271° |
| 2026-05-06 07:44 | 22.94307 | 49.08694 | 35935 ft | 415 kts | 271° |
| 2026-05-06 07:45 | 22.94758 | 49.02435 | 35940 ft | 415 kts | 271° |
| 2026-05-06 07:45 | 22.95204 | 48.96214 | 35946 ft | 415 kts | 271° |
| 2026-05-06 07:46 | 22.95650 | 48.89964 | 35952 ft | 415 kts | 271° |
| 2026-05-06 07:46 | 22.96093 | 48.83729 | 35955 ft | 415 kts | 271° |
| 2026-05-06 07:47 | 22.96533 | 48.77489 | 35957 ft | 415 kts | 271° |
| 2026-05-06 07:47 | 22.96969 | 48.71271 | 35957 ft | 415 kts | 271° |
| 2026-05-06 07:48 | 22.97405 | 48.65031 | 35957 ft | 415 kts | 271° |
| 2026-05-06 07:48 | 22.97840 | 48.58755 | 35957 ft | 415 kts | 271° |
| 2026-05-06 07:49 | 22.98270 | 48.52515 | 35957 ft | 415 kts | 271° |
| 2026-05-06 07:49 | 22.98696 | 48.46311 | 35957 ft | 415 kts | 271° |
| 2026-05-06 07:50 | 22.99122 | 48.40064 | 35957 ft | 415 kts | 271° |
| 2026-05-06 07:50 | 22.99546 | 48.33808 | 35959 ft | 415 kts | 271° |
| 2026-05-06 07:51 | 22.99967 | 48.27571 | 35957 ft | 415 kts | 271° |
| 2026-05-06 07:51 | 23.00386 | 48.21316 | 35958 ft | 415 kts | 271° |
| 2026-05-06 07:52 | 23.00804 | 48.14990 | 35959 ft | 424 kts | 271° |
| 2026-05-06 07:52 | 23.01229 | 48.08552 | 35959 ft | 431 kts | 271° |
| 2026-05-06 07:53 | 23.01657 | 48.02024 | 35959 ft | 436 kts | 271° |
| 2026-05-06 07:53 | 23.02089 | 47.95414 | 35960 ft | 441 kts | 271° |
| 2026-05-06 07:54 | 23.02886 | 47.88998 | 35955 ft | 420 kts | 281° |
| 2026-05-06 07:54 | 23.05107 | 47.83093 | 35968 ft | 427 kts | 295° |
| 2026-05-06 07:55 | 23.08737 | 47.77958 | 35976 ft | 437 kts | 310° |
| 2026-05-06 07:55 | 23.13633 | 47.73949 | 35982 ft | 446 kts | 323° |
| 2026-05-06 07:56 | 23.18940 | 47.70409 | 35984 ft | 446 kts | 323° |
| 2026-05-06 07:56 | 23.24206 | 47.66869 | 35985 ft | 446 kts | 322° |
| 2026-05-06 07:57 | 23.29458 | 47.63318 | 35985 ft | 446 kts | 322° |
| 2026-05-06 07:57 | 23.34713 | 47.59755 | 35985 ft | 446 kts | 322° |
| 2026-05-06 07:58 | 23.39939 | 47.56203 | 35985 ft | 446 kts | 322° |
| 2026-05-06 07:58 | 23.45203 | 47.52626 | 35985 ft | 446 kts | 322° |
| 2026-05-06 07:59 | 23.50466 | 47.49066 | 35983 ft | 446 kts | 322° |
| 2026-05-06 07:59 | 23.55725 | 47.45507 | 35980 ft | 446 kts | 322° |
| 2026-05-06 08:00 | 23.60988 | 47.41932 | 35979 ft | 446 kts | 322° |
| 2026-05-06 08:00 | 23.66238 | 47.38360 | 35978 ft | 446 kts | 322° |
| 2026-05-06 08:01 | 23.71451 | 47.34808 | 35979 ft | 445 kts | 322° |
| 2026-05-06 08:01 | 23.76700 | 47.31203 | 35979 ft | 444 kts | 321° |
| 2026-05-06 08:02 | 23.81911 | 47.27628 | 35979 ft | 444 kts | 322° |
| 2026-05-06 08:02 | 23.87136 | 47.24052 | 35978 ft | 444 kts | 321° |
| 2026-05-06 08:03 | 23.92378 | 47.20464 | 35978 ft | 444 kts | 321° |
| 2026-05-06 08:03 | 23.97597 | 47.16887 | 35978 ft | 444 kts | 321° |
| 2026-05-06 08:04 | 24.02814 | 47.13316 | 35978 ft | 443 kts | 321° |
| 2026-05-06 08:04 | 24.08043 | 47.09767 | 35979 ft | 444 kts | 322° |
| 2026-05-06 08:05 | 24.13593 | 47.06665 | 35978 ft | 450 kts | 329° |
| 2026-05-06 08:05 | 24.19437 | 47.04170 | 35978 ft | 453 kts | 332° |
| 2026-05-06 08:06 | 24.25377 | 47.01781 | 35978 ft | 453 kts | 332° |
| 2026-05-06 08:06 | 24.31278 | 46.99395 | 35979 ft | 453 kts | 332° |
| 2026-05-06 08:07 | 24.37185 | 46.96997 | 35980 ft | 453 kts | 332° |
| 2026-05-06 08:07 | 24.43092 | 46.94594 | 35982 ft | 453 kts | 332° |
| 2026-05-06 08:08 | 24.48976 | 46.92196 | 35984 ft | 453 kts | 332° |
| 2026-05-06 08:08 | 24.54872 | 46.89791 | 35989 ft | 452 kts | 332° |
| 2026-05-06 08:09 | 24.60783 | 46.87376 | 35996 ft | 452 kts | 332° |
| 2026-05-06 08:09 | 24.66666 | 46.84970 | 36005 ft | 452 kts | 332° |
| 2026-05-06 08:10 | 24.72540 | 46.82561 | 36013 ft | 452 kts | 332° |
| 2026-05-06 08:10 | 24.78437 | 46.80145 | 36019 ft | 452 kts | 332° |
| 2026-05-06 08:11 | 24.84203 | 46.77477 | 36023 ft | 447 kts | 326° |
| 2026-05-06 08:11 | 24.89545 | 46.74111 | 36024 ft | 440 kts | 318° |
| 2026-05-06 08:12 | 24.94408 | 46.70086 | 36023 ft | 432 kts | 311° |
| 2026-05-06 08:12 | 24.98810 | 46.65683 | 36024 ft | 430 kts | 309° |
| 2026-05-06 08:13 | 25.03212 | 46.61191 | 36025 ft | 429 kts | 309° |
| 2026-05-06 08:13 | 25.07573 | 46.56746 | 36024 ft | 428 kts | 309° |
| 2026-05-06 08:14 | 25.11959 | 46.52286 | 36023 ft | 428 kts | 309° |
| 2026-05-06 08:14 | 25.16344 | 46.47848 | 36024 ft | 428 kts | 309° |
| 2026-05-06 08:15 | 25.20736 | 46.43382 | 36024 ft | 427 kts | 309° |
| 2026-05-06 08:15 | 25.25100 | 46.38928 | 36025 ft | 427 kts | 309° |
| 2026-05-06 08:16 | 25.29459 | 46.34472 | 36027 ft | 427 kts | 308° |
| 2026-05-06 08:16 | 25.33794 | 46.30012 | 36025 ft | 426 kts | 308° |
| 2026-05-06 08:17 | 25.38147 | 46.25538 | 36024 ft | 426 kts | 308° |
| 2026-05-06 08:17 | 25.42478 | 46.21090 | 36024 ft | 426 kts | 308° |
| 2026-05-06 08:18 | 25.46819 | 46.16630 | 36025 ft | 425 kts | 308° |
| 2026-05-06 08:18 | 25.51131 | 46.12197 | 36024 ft | 424 kts | 308° |
| 2026-05-06 08:19 | 25.55451 | 46.07746 | 36024 ft | 423 kts | 308° |
| 2026-05-06 08:19 | 25.59765 | 46.03298 | 36024 ft | 423 kts | 308° |
| 2026-05-06 08:20 | 25.64083 | 45.98852 | 36025 ft | 424 kts | 308° |
| 2026-05-06 08:20 | 25.68384 | 45.94427 | 36024 ft | 423 kts | 308° |
| 2026-05-06 08:21 | 25.72683 | 45.89993 | 36024 ft | 423 kts | 308° |
| 2026-05-06 08:21 | 25.77000 | 45.85528 | 36024 ft | 423 kts | 308° |
| 2026-05-06 08:22 | 25.81268 | 45.81107 | 36026 ft | 423 kts | 308° |
| 2026-05-06 08:22 | 25.85586 | 45.76633 | 36032 ft | 423 kts | 308° |
| 2026-05-06 08:23 | 25.89879 | 45.72188 | 36038 ft | 423 kts | 308° |
| 2026-05-06 08:23 | 25.94180 | 45.67727 | 36045 ft | 422 kts | 308° |
| 2026-05-06 08:24 | 25.98451 | 45.63287 | 36050 ft | 422 kts | 308° |
| 2026-05-06 08:24 | 26.02739 | 45.58824 | 36052 ft | 422 kts | 308° |
| 2026-05-06 08:25 | 26.07038 | 45.54341 | 36052 ft | 422 kts | 307° |
| 2026-05-06 08:25 | 26.11315 | 45.49878 | 36049 ft | 423 kts | 307° |
| 2026-05-06 08:26 | 26.15631 | 45.45396 | 36052 ft | 423 kts | 307° |
| 2026-05-06 08:26 | 26.19916 | 45.40933 | 36053 ft | 423 kts | 307° |
| 2026-05-06 08:27 | 26.24194 | 45.36463 | 36053 ft | 422 kts | 307° |
| 2026-05-06 08:27 | 26.28476 | 45.31964 | 36053 ft | 421 kts | 306° |
| 2026-05-06 08:28 | 26.32713 | 45.27516 | 36047 ft | 421 kts | 307° |
| 2026-05-06 08:28 | 26.36988 | 45.23043 | 36041 ft | 421 kts | 307° |
| 2026-05-06 08:29 | 26.41273 | 45.18548 | 36034 ft | 422 kts | 306° |
| 2026-05-06 08:29 | 26.45543 | 45.14058 | 36028 ft | 422 kts | 306° |
| 2026-05-06 08:30 | 26.49794 | 45.09581 | 36026 ft | 421 kts | 306° |
| 2026-05-06 08:30 | 26.54044 | 45.05096 | 36028 ft | 421 kts | 306° |
| 2026-05-06 08:31 | 26.58308 | 45.00599 | 36031 ft | 422 kts | 306° |
| 2026-05-06 08:31 | 26.62578 | 44.96099 | 36036 ft | 422 kts | 306° |
| 2026-05-06 08:32 | 26.66838 | 44.91607 | 36041 ft | 422 kts | 306° |
| 2026-05-06 08:32 | 26.71103 | 44.87093 | 36046 ft | 423 kts | 306° |
| 2026-05-06 08:33 | 26.75390 | 44.82552 | 36050 ft | 423 kts | 306° |
| 2026-05-06 08:33 | 26.79654 | 44.78037 | 36052 ft | 423 kts | 306° |
| 2026-05-06 08:34 | 26.86046 | 44.71251 | 36052 ft | 423 kts | 306° |
| 2026-05-06 08:35 | 26.90306 | 44.66712 | 36052 ft | 423 kts | 306° |
| 2026-05-06 08:35 | 26.94556 | 44.62179 | 36052 ft | 422 kts | 306° |
| 2026-05-06 08:36 | 26.98826 | 44.57619 | 36052 ft | 422 kts | 306° |
| 2026-05-06 08:36 | 27.03085 | 44.53075 | 36051 ft | 423 kts | 305° |
| 2026-05-06 08:37 | 27.07348 | 44.48512 | 36052 ft | 423 kts | 305° |
| 2026-05-06 08:37 | 27.11604 | 44.43952 | 36050 ft | 423 kts | 305° |
| 2026-05-06 08:38 | 27.15867 | 44.39404 | 36052 ft | 423 kts | 305° |
| 2026-05-06 08:38 | 27.20121 | 44.34864 | 36053 ft | 423 kts | 305° |
| 2026-05-06 08:39 | 27.24398 | 44.30280 | 36053 ft | 422 kts | 304° |
| 2026-05-06 08:39 | 27.28604 | 44.25755 | 36053 ft | 422 kts | 304° |
| 2026-05-06 08:40 | 27.32853 | 44.21182 | 36052 ft | 422 kts | 304° |
| 2026-05-06 08:40 | 27.37107 | 44.16601 | 36051 ft | 422 kts | 304° |
| 2026-05-06 08:41 | 27.41344 | 44.12032 | 36051 ft | 423 kts | 304° |
| 2026-05-06 08:41 | 27.45575 | 44.07465 | 36052 ft | 423 kts | 304° |
| 2026-05-06 08:42 | 27.49814 | 44.02885 | 36052 ft | 422 kts | 304° |
| 2026-05-06 08:42 | 27.54053 | 43.98300 | 36051 ft | 423 kts | 304° |
| 2026-05-06 08:43 | 27.58305 | 43.93693 | 36052 ft | 423 kts | 304° |
| 2026-05-06 08:43 | 27.62542 | 43.89098 | 36052 ft | 423 kts | 304° |
| 2026-05-06 08:44 | 27.66792 | 43.84483 | 36052 ft | 423 kts | 304° |
| 2026-05-06 08:44 | 27.71017 | 43.79888 | 36052 ft | 423 kts | 304° |
| 2026-05-06 08:45 | 27.75281 | 43.75246 | 36052 ft | 423 kts | 304° |
| 2026-05-06 08:45 | 27.79508 | 43.70635 | 36052 ft | 423 kts | 304° |
| 2026-05-06 08:46 | 27.83723 | 43.66036 | 36052 ft | 423 kts | 303° |
| 2026-05-06 08:46 | 27.87793 | 43.61263 | 36052 ft | 419 kts | 301° |
| 2026-05-06 08:47 | 27.91769 | 43.56480 | 36052 ft | 419 kts | 301° |
| 2026-05-06 08:47 | 27.95764 | 43.51664 | 36052 ft | 419 kts | 301° |
| 2026-05-06 08:48 | 27.99742 | 43.46862 | 36052 ft | 419 kts | 301° |
| 2026-05-06 08:48 | 28.03742 | 43.42029 | 36052 ft | 419 kts | 301° |
| 2026-05-06 08:49 | 28.07719 | 43.37216 | 36052 ft | 419 kts | 301° |
| 2026-05-06 08:49 | 28.11706 | 43.32385 | 36052 ft | 419 kts | 301° |
| 2026-05-06 08:50 | 28.15679 | 43.27587 | 36052 ft | 419 kts | 301° |
| 2026-05-06 08:50 | 28.19668 | 43.22755 | 36052 ft | 417 kts | 301° |
| 2026-05-06 08:51 | 28.23632 | 43.17940 | 36052 ft | 417 kts | 301° |
| 2026-05-06 08:51 | 28.27572 | 43.13144 | 36055 ft | 417 kts | 301° |
| 2026-05-06 08:52 | 28.31536 | 43.08312 | 36060 ft | 418 kts | 301° |
| 2026-05-06 08:52 | 28.35490 | 43.03492 | 36065 ft | 417 kts | 301° |
| 2026-05-06 08:53 | 28.39469 | 42.98630 | 36069 ft | 417 kts | 301° |
| 2026-05-06 08:53 | 28.43395 | 42.93828 | 36074 ft | 417 kts | 301° |
| 2026-05-06 08:54 | 28.47352 | 42.88978 | 36077 ft | 418 kts | 301° |
| 2026-05-06 08:54 | 28.51307 | 42.84128 | 36078 ft | 418 kts | 301° |
| 2026-05-06 08:55 | 28.55229 | 42.79311 | 36079 ft | 418 kts | 301° |
| 2026-05-06 08:55 | 28.59169 | 42.74460 | 36079 ft | 418 kts | 301° |
| 2026-05-06 08:56 | 28.63115 | 42.69601 | 36079 ft | 418 kts | 301° |
| 2026-05-06 08:56 | 28.67090 | 42.64717 | 36078 ft | 418 kts | 301° |
| 2026-05-06 08:57 | 28.71041 | 42.59861 | 36078 ft | 418 kts | 301° |
| 2026-05-06 08:57 | 28.74959 | 42.55028 | 36078 ft | 418 kts | 301° |
| 2026-05-06 08:58 | 28.78918 | 42.50134 | 36078 ft | 418 kts | 301° |
| 2026-05-06 08:58 | 28.82830 | 42.45292 | 36078 ft | 418 kts | 301° |
| 2026-05-06 08:59 | 28.86764 | 42.40414 | 36078 ft | 418 kts | 301° |
| 2026-05-06 08:59 | 28.90712 | 42.35513 | 36078 ft | 418 kts | 301° |
| 2026-05-06 09:00 | 28.94612 | 42.30650 | 36080 ft | 417 kts | 301° |
| 2026-05-06 09:00 | 28.98520 | 42.25771 | 36079 ft | 417 kts | 301° |
| 2026-05-06 09:01 | 29.02460 | 42.20858 | 36079 ft | 417 kts | 301° |
| 2026-05-06 09:01 | 29.06360 | 42.15999 | 36079 ft | 418 kts | 301° |
| 2026-05-06 09:02 | 29.10299 | 42.11093 | 36078 ft | 418 kts | 301° |
| 2026-05-06 09:02 | 29.14259 | 42.06185 | 36078 ft | 418 kts | 301° |
| 2026-05-06 09:03 | 29.18185 | 42.01302 | 36079 ft | 417 kts | 301° |
| 2026-05-06 09:03 | 29.22098 | 41.96408 | 36079 ft | 417 kts | 301° |
| 2026-05-06 09:04 | 29.26002 | 41.91515 | 36086 ft | 417 kts | 301° |
| 2026-05-06 09:04 | 29.29912 | 41.86606 | 36095 ft | 417 kts | 301° |
| 2026-05-06 09:05 | 29.33834 | 41.81673 | 36102 ft | 417 kts | 301° |
| 2026-05-06 09:05 | 29.37725 | 41.76774 | 36104 ft | 417 kts | 301° |
| 2026-05-06 09:06 | 29.41631 | 41.71849 | 36101 ft | 417 kts | 301° |
| 2026-05-06 09:06 | 29.45543 | 41.66911 | 36092 ft | 417 kts | 301° |
| 2026-05-06 09:07 | 29.49436 | 41.61986 | 36085 ft | 417 kts | 301° |
| 2026-05-06 09:07 | 29.53337 | 41.57048 | 36081 ft | 418 kts | 301° |
| 2026-05-06 09:08 | 29.57227 | 41.52107 | 36080 ft | 420 kts | 302° |
| 2026-05-06 09:08 | 29.61151 | 41.47129 | 36080 ft | 420 kts | 302° |
| 2026-05-06 09:09 | 29.65099 | 41.42110 | 36080 ft | 420 kts | 302° |
| 2026-05-06 09:09 | 29.69007 | 41.37131 | 36080 ft | 420 kts | 302° |
| 2026-05-06 09:10 | 29.72955 | 41.32149 | 36082 ft | 422 kts | 303° |
| 2026-05-06 09:10 | 29.77236 | 41.27480 | 36082 ft | 428 kts | 307° |
| 2026-05-06 09:11 | 29.81696 | 41.22905 | 36081 ft | 428 kts | 307° |
| 2026-05-06 09:11 | 29.86147 | 41.18340 | 36081 ft | 428 kts | 307° |
| 2026-05-06 09:12 | 29.90597 | 41.13766 | 36081 ft | 428 kts | 307° |
| 2026-05-06 09:12 | 29.95032 | 41.09200 | 36080 ft | 428 kts | 307° |
| 2026-05-06 09:13 | 29.99469 | 41.04625 | 36084 ft | 429 kts | 308° |
| 2026-05-06 09:13 | 30.03937 | 41.00013 | 36092 ft | 429 kts | 308° |
| 2026-05-06 09:14 | 30.08365 | 40.95437 | 36105 ft | 429 kts | 308° |
| 2026-05-06 09:14 | 30.12804 | 40.90855 | 36117 ft | 429 kts | 308° |
| 2026-05-06 09:15 | 30.17285 | 40.86242 | 36131 ft | 429 kts | 308° |
| 2026-05-06 09:15 | 30.21711 | 40.81658 | 36141 ft | 430 kts | 308° |
| 2026-05-06 09:16 | 30.26167 | 40.77026 | 36153 ft | 430 kts | 308° |
| 2026-05-06 09:16 | 30.30634 | 40.72371 | 36152 ft | 430 kts | 307° |
| 2026-05-06 09:17 | 30.35108 | 40.67699 | 36142 ft | 431 kts | 307° |
| 2026-05-06 09:17 | 30.39550 | 40.63071 | 36137 ft | 433 kts | 308° |
| 2026-05-06 09:18 | 30.44083 | 40.58456 | 36136 ft | 433 kts | 308° |
| 2026-05-06 09:18 | 30.48620 | 40.53832 | 36135 ft | 433 kts | 308° |
| 2026-05-06 09:19 | 30.53125 | 40.49220 | 36135 ft | 433 kts | 308° |
| 2026-05-06 09:19 | 30.57619 | 40.44606 | 36135 ft | 433 kts | 308° |
| 2026-05-06 09:20 | 30.62159 | 40.39938 | 36132 ft | 433 kts | 308° |
| 2026-05-06 09:20 | 30.66656 | 40.35307 | 36127 ft | 433 kts | 308° |
| 2026-05-06 09:21 | 30.71154 | 40.30651 | 36120 ft | 432 kts | 308° |
| 2026-05-06 09:21 | 30.75635 | 40.26005 | 36113 ft | 433 kts | 308° |
| 2026-05-06 09:22 | 30.80141 | 40.21339 | 36110 ft | 433 kts | 308° |
| 2026-05-06 09:22 | 30.84650 | 40.16669 | 36109 ft | 433 kts | 308° |
| 2026-05-06 09:23 | 30.89125 | 40.12030 | 36109 ft | 433 kts | 308° |
| 2026-05-06 09:23 | 30.93632 | 40.07352 | 36109 ft | 433 kts | 308° |
| 2026-05-06 09:24 | 30.98136 | 40.02670 | 36109 ft | 432 kts | 308° |
| 2026-05-06 09:24 | 31.02619 | 39.98002 | 36108 ft | 432 kts | 308° |
| 2026-05-06 09:25 | 31.07079 | 39.93353 | 36108 ft | 432 kts | 308° |
| 2026-05-06 09:25 | 31.11594 | 39.88648 | 36107 ft | 432 kts | 308° |
| 2026-05-06 09:26 | 31.16093 | 39.83982 | 36108 ft | 432 kts | 308° |
| 2026-05-06 09:26 | 31.20553 | 39.79331 | 36109 ft | 432 kts | 308° |
| 2026-05-06 09:27 | 31.25022 | 39.74651 | 36109 ft | 431 kts | 308° |
| 2026-05-06 09:27 | 31.29490 | 39.69959 | 36109 ft | 431 kts | 308° |
| 2026-05-06 09:28 | 31.33952 | 39.65264 | 36109 ft | 431 kts | 308° |
| 2026-05-06 09:28 | 31.38405 | 39.60568 | 36109 ft | 432 kts | 308° |
| 2026-05-06 09:29 | 31.42870 | 39.55859 | 36109 ft | 432 kts | 308° |
| 2026-05-06 09:29 | 31.47325 | 39.51179 | 36109 ft | 432 kts | 308° |
| 2026-05-06 09:30 | 31.51808 | 39.46458 | 36109 ft | 432 kts | 308° |
| 2026-05-06 09:30 | 31.56253 | 39.41759 | 36109 ft | 432 kts | 308° |
| 2026-05-06 09:31 | 31.60737 | 39.37006 | 36108 ft | 432 kts | 308° |
| 2026-05-06 09:31 | 31.65171 | 39.32288 | 36110 ft | 431 kts | 308° |
| 2026-05-06 09:32 | 31.69606 | 39.27551 | 36109 ft | 431 kts | 308° |
| 2026-05-06 09:32 | 31.74054 | 39.22815 | 36109 ft | 432 kts | 308° |
| 2026-05-06 09:33 | 31.78730 | 39.18319 | 36109 ft | 439 kts | 314° |
| 2026-05-06 09:33 | 31.83876 | 39.14337 | 36111 ft | 447 kts | 320° |
| 2026-05-06 09:34 | 31.89387 | 39.10913 | 36109 ft | 447 kts | 323° |
| 2026-05-06 09:34 | 31.94930 | 39.07650 | 36108 ft | 445 kts | 323° |
| 2026-05-06 09:35 | 32.00477 | 39.04373 | 36109 ft | 445 kts | 323° |
| 2026-05-06 09:35 | 32.06029 | 39.01100 | 36109 ft | 446 kts | 323° |
| 2026-05-06 09:36 | 32.11562 | 38.97853 | 36106 ft | 446 kts | 324° |
| 2026-05-06 09:36 | 32.17154 | 38.94578 | 36108 ft | 445 kts | 323° |
| 2026-05-06 09:37 | 32.22709 | 38.91304 | 36109 ft | 446 kts | 323° |
| 2026-05-06 09:37 | 32.28264 | 38.88015 | 36109 ft | 446 kts | 323° |
| 2026-05-06 09:38 | 32.33826 | 38.84716 | 36109 ft | 446 kts | 323° |
| 2026-05-06 09:38 | 32.39379 | 38.81416 | 36109 ft | 446 kts | 323° |
| 2026-05-06 09:39 | 32.44890 | 38.78133 | 36109 ft | 446 kts | 323° |
| 2026-05-06 09:39 | 32.50413 | 38.74836 | 36109 ft | 446 kts | 323° |
| 2026-05-06 09:40 | 32.55979 | 38.71506 | 36109 ft | 446 kts | 324° |
| 2026-05-06 09:40 | 32.64290 | 38.66558 | 36109 ft | 446 kts | 324° |
| 2026-05-06 09:41 | 32.69821 | 38.63262 | 36109 ft | 445 kts | 324° |
| 2026-05-06 09:41 | 32.75336 | 38.59961 | 36108 ft | 446 kts | 324° |
| 2026-05-06 09:42 | 32.80861 | 38.56645 | 36109 ft | 445 kts | 324° |
| 2026-05-06 09:42 | 32.86373 | 38.53328 | 36108 ft | 445 kts | 324° |
| 2026-05-06 09:43 | 32.91927 | 38.49977 | 36108 ft | 445 kts | 324° |
| 2026-05-06 09:43 | 32.97421 | 38.46666 | 36108 ft | 446 kts | 324° |
| 2026-05-06 09:44 | 33.02960 | 38.43333 | 36108 ft | 445 kts | 324° |
| 2026-05-06 09:44 | 33.08486 | 38.39989 | 36108 ft | 445 kts | 324° |
| 2026-05-06 09:45 | 33.14055 | 38.36630 | 36107 ft | 446 kts | 324° |
| 2026-05-06 09:45 | 33.19581 | 38.33293 | 36112 ft | 448 kts | 323° |
| 2026-05-06 09:46 | 33.25121 | 38.29922 | 36108 ft | 446 kts | 324° |
| 2026-05-06 09:46 | 33.30643 | 38.26556 | 36109 ft | 446 kts | 323° |
| 2026-05-06 09:47 | 33.36180 | 38.23167 | 36109 ft | 446 kts | 324° |
| 2026-05-06 09:47 | 33.41698 | 38.19783 | 36107 ft | 446 kts | 324° |
| 2026-05-06 09:48 | 33.47240 | 38.16393 | 36108 ft | 446 kts | 324° |
| 2026-05-06 09:48 | 33.52771 | 38.13051 | 36109 ft | 446 kts | 324° |
| 2026-05-06 09:49 | 33.58303 | 38.09694 | 36109 ft | 446 kts | 324° |
| 2026-05-06 09:49 | 33.63824 | 38.06330 | 36109 ft | 446 kts | 324° |
| 2026-05-06 09:50 | 33.69394 | 38.02929 | 36109 ft | 446 kts | 324° |
| 2026-05-06 09:50 | 33.74886 | 37.99567 | 36109 ft | 446 kts | 324° |
| 2026-05-06 09:51 | 33.80363 | 37.96114 | 36108 ft | 443 kts | 321° |
| 2026-05-06 09:51 | 33.85354 | 37.91858 | 36108 ft | 436 kts | 311° |
| 2026-05-06 09:52 | 33.89578 | 37.86777 | 36108 ft | 426 kts | 302° |
| 2026-05-06 09:52 | 33.93030 | 37.81010 | 36109 ft | 419 kts | 295° |
| 2026-05-06 09:53 | 33.96136 | 37.75065 | 36108 ft | 419 kts | 295° |
| 2026-05-06 09:53 | 33.99237 | 37.69104 | 36108 ft | 419 kts | 295° |
| 2026-05-06 09:54 | 34.02345 | 37.63129 | 36108 ft | 419 kts | 295° |
| 2026-05-06 09:54 | 34.05442 | 37.57178 | 36108 ft | 419 kts | 295° |
| 2026-05-06 09:55 | 34.08536 | 37.51221 | 36108 ft | 419 kts | 295° |
| 2026-05-06 09:55 | 34.11644 | 37.45239 | 36107 ft | 419 kts | 295° |
| 2026-05-06 09:56 | 34.14740 | 37.39299 | 36109 ft | 419 kts | 295° |
| 2026-05-06 09:56 | 34.17706 | 37.33276 | 36072 ft | 416 kts | 291° |
| 2026-05-06 09:57 | 34.18953 | 37.30142 | 35812 ft | 411 kts | 287° |
| 2026-05-06 09:57 | 34.20014 | 37.26920 | 35558 ft | 405 kts | 284° |
| 2026-05-06 09:57 | 34.20877 | 37.23691 | 35306 ft | 401 kts | 280° |
| 2026-05-06 09:57 | 34.21550 | 37.20465 | 35058 ft | 397 kts | 277° |
| 2026-05-06 09:58 | 34.22050 | 37.17184 | 34806 ft | 393 kts | 274° |
| 2026-05-06 09:58 | 34.22379 | 37.13908 | 34514 ft | 393 kts | 271° |
| 2026-05-06 09:58 | 34.22648 | 37.10620 | 34078 ft | 393 kts | 271° |
| 2026-05-06 09:58 | 34.22908 | 37.07319 | 33525 ft | 394 kts | 271° |
| 2026-05-06 09:59 | 34.23163 | 37.04033 | 32894 ft | 395 kts | 271° |
| 2026-05-06 09:59 | 34.23418 | 37.00744 | 32221 ft | 395 kts | 272° |
| 2026-05-06 09:59 | 34.23675 | 36.97423 | 31513 ft | 396 kts | 272° |
| 2026-05-06 09:59 | 34.23930 | 36.94109 | 30790 ft | 396 kts | 272° |
| 2026-05-06 10:00 | 34.24182 | 36.90822 | 30045 ft | 397 kts | 272° |
| 2026-05-06 10:00 | 34.24439 | 36.87474 | 29266 ft | 399 kts | 272° |
| 2026-05-06 10:00 | 34.24692 | 36.84146 | 28474 ft | 400 kts | 272° |
| 2026-05-06 10:00 | 34.24948 | 36.80778 | 27667 ft | 402 kts | 272° |
| 2026-05-06 10:01 | 34.25200 | 36.77452 | 27153 ft | 396 kts | 273° |
| 2026-05-06 10:01 | 34.25451 | 36.74123 | 26620 ft | 392 kts | 273° |
| 2026-05-06 10:01 | 34.25691 | 36.70905 | 26099 ft | 388 kts | 273° |
| 2026-05-06 10:01 | 34.25930 | 36.67669 | 25570 ft | 384 kts | 273° |
| 2026-05-06 10:02 | 34.26168 | 36.64454 | 25044 ft | 381 kts | 273° |
| 2026-05-06 10:02 | 34.26403 | 36.61303 | 24526 ft | 377 kts | 273° |
| 2026-05-06 10:02 | 34.26604 | 36.58434 | 24058 ft | 374 kts | 272° |
| 2026-05-06 10:02 | 34.26762 | 36.55077 | 23509 ft | 371 kts | 271° |
| 2026-05-06 10:03 | 34.26887 | 36.52034 | 23001 ft | 369 kts | 271° |
| 2026-05-06 10:03 | 34.27008 | 36.48964 | 22481 ft | 367 kts | 271° |
| 2026-05-06 10:03 | 34.27125 | 36.45901 | 21957 ft | 365 kts | 271° |
| 2026-05-06 10:03 | 34.27243 | 36.42836 | 21437 ft | 362 kts | 271° |
| 2026-05-06 10:04 | 34.27357 | 36.39795 | 20921 ft | 360 kts | 271° |
| 2026-05-06 10:04 | 34.27469 | 36.36779 | 20397 ft | 359 kts | 271° |
| 2026-05-06 10:04 | 34.27581 | 36.33747 | 19873 ft | 357 kts | 271° |
| 2026-05-06 10:04 | 34.27689 | 36.30762 | 19348 ft | 356 kts | 271° |
| 2026-05-06 10:05 | 34.27798 | 36.27773 | 18826 ft | 355 kts | 271° |
| 2026-05-06 10:05 | 34.27905 | 36.24800 | 18301 ft | 353 kts | 271° |
| 2026-05-06 10:05 | 34.28010 | 36.21834 | 17782 ft | 352 kts | 271° |
| 2026-05-06 10:05 | 34.28114 | 36.18909 | 17269 ft | 351 kts | 271° |
| 2026-05-06 10:06 | 34.28217 | 36.15956 | 16754 ft | 350 kts | 271° |
| 2026-05-06 10:06 | 34.28317 | 36.13055 | 16252 ft | 348 kts | 271° |
| 2026-05-06 10:06 | 34.28418 | 36.10104 | 15742 ft | 347 kts | 271° |
| 2026-05-06 10:06 | 34.28517 | 36.07211 | 15244 ft | 346 kts | 271° |
| 2026-05-06 10:07 | 34.28615 | 36.04322 | 14751 ft | 344 kts | 271° |
| 2026-05-06 10:07 | 34.28714 | 36.01425 | 14255 ft | 344 kts | 271° |
| 2026-05-06 10:07 | 34.28823 | 35.98557 | 13768 ft | 342 kts | 271° |
| 2026-05-06 10:07 | 34.28957 | 35.95673 | 13275 ft | 341 kts | 271° |
| 2026-05-06 10:08 | 34.29093 | 35.92806 | 12789 ft | 339 kts | 271° |
| 2026-05-06 10:08 | 34.29225 | 35.89965 | 12328 ft | 337 kts | 271° |
| 2026-05-06 10:08 | 34.29355 | 35.87132 | 11857 ft | 336 kts | 271° |
| 2026-05-06 10:08 | 34.29479 | 35.84324 | 11380 ft | 335 kts | 271° |
| 2026-05-06 10:09 | 34.29602 | 35.81497 | 10893 ft | 334 kts | 271° |
| 2026-05-06 10:09 | 34.29722 | 35.78719 | 10489 ft | 329 kts | 272° |
| 2026-05-06 10:09 | 34.29842 | 35.75984 | 10350 ft | 315 kts | 272° |
| 2026-05-06 10:09 | 34.29956 | 35.73392 | 10220 ft | 302 kts | 272° |
| 2026-05-06 10:10 | 34.30065 | 35.70923 | 10113 ft | 289 kts | 272° |
| 2026-05-06 10:10 | 34.30090 | 35.68531 | 10009 ft | 276 kts | 264° |
| 2026-05-06 10:10 | 34.29743 | 35.66299 | 9923 ft | 265 kts | 252° |
| 2026-05-06 10:10 | 34.29081 | 35.64252 | 9499 ft | 267 kts | 245° |
| 2026-05-06 10:11 | 34.28277 | 35.62171 | 8867 ft | 276 kts | 244° |
| 2026-05-06 10:11 | 34.27448 | 35.60071 | 8444 ft | 276 kts | 244° |
| 2026-05-06 10:11 | 34.26631 | 35.57992 | 8080 ft | 274 kts | 244° |
| 2026-05-06 10:11 | 34.25812 | 35.55888 | 7699 ft | 273 kts | 244° |
| 2026-05-06 10:12 | 34.25011 | 35.53824 | 7325 ft | 271 kts | 244° |
| 2026-05-06 10:12 | 34.24215 | 35.51765 | 6961 ft | 269 kts | 244° |
| 2026-05-06 10:12 | 34.23425 | 35.49721 | 6587 ft | 268 kts | 244° |
| 2026-05-06 10:12 | 34.22638 | 35.47688 | 6212 ft | 266 kts | 244° |
| 2026-05-06 10:13 | 34.21854 | 35.45661 | 5839 ft | 265 kts | 244° |
| 2026-05-06 10:13 | 34.21081 | 35.43660 | 5470 ft | 263 kts | 244° |
| 2026-05-06 10:13 | 34.20306 | 35.41670 | 5104 ft | 262 kts | 242° |
| 2026-05-06 10:13 | 34.19174 | 35.40001 | 4927 ft | 257 kts | 214° |
| 2026-05-06 10:14 | 34.17508 | 35.39222 | 4918 ft | 260 kts | 187° |
| 2026-05-06 10:14 | 34.15705 | 35.39236 | 4917 ft | 257 kts | 174° |
| 2026-05-06 10:14 | 34.13977 | 35.39560 | 4909 ft | 242 kts | 170° |
| 2026-05-06 10:14 | 34.12391 | 35.39962 | 4903 ft | 226 kts | 168° |
| 2026-05-06 10:15 | 34.10910 | 35.40365 | 4896 ft | 211 kts | 168° |
| 2026-05-06 10:15 | 34.09533 | 35.40748 | 4914 ft | 194 kts | 168° |
| 2026-05-06 10:15 | 34.08258 | 35.41103 | 4969 ft | 188 kts | 168° |
| 2026-05-06 10:15 | 34.07000 | 35.41452 | 4780 ft | 183 kts | 168° |
| 2026-05-06 10:16 | 34.05743 | 35.41800 | 4421 ft | 185 kts | 168° |
| 2026-05-06 10:16 | 34.04495 | 35.42146 | 4084 ft | 185 kts | 168° |
| 2026-05-06 10:16 | 34.03257 | 35.42490 | 3766 ft | 184 kts | 168° |
| 2026-05-06 10:16 | 34.02013 | 35.42836 | 3448 ft | 183 kts | 168° |
| 2026-05-06 10:17 | 34.00771 | 35.43181 | 3130 ft | 182 kts | 168° |
| 2026-05-06 10:17 | 33.99531 | 35.43526 | 2813 ft | 181 kts | 168° |
| 2026-05-06 10:17 | 33.98325 | 35.43861 | 2567 ft | 176 kts | 168° |
| 2026-05-06 10:17 | 33.97172 | 35.44184 | 2347 ft | 165 kts | 168° |
| 2026-05-06 10:18 | 33.96073 | 35.44492 | 2053 ft | 159 kts | 168° |
| 2026-05-06 10:18 | 33.95004 | 35.44792 | 1957 ft | 157 kts | 168° |
| 2026-05-06 10:18 | 33.93966 | 35.45083 | 1929 ft | 147 kts | 168° |
| 2026-05-06 10:18 | 33.93028 | 35.45347 | 1801 ft | 134 kts | 168° |
| 2026-05-06 10:19 | 33.92120 | 35.45600 | 1680 ft | 133 kts | 168° |
| 2026-05-06 10:19 | 33.91221 | 35.45851 | 1527 ft | 132 kts | 168° |
| 2026-05-06 10:19 | 33.90316 | 35.46104 | 1361 ft | 132 kts | 168° |
| 2026-05-06 10:19 | 33.89447 | 35.46338 | 1194 ft | 131 kts | 169° |
| 2026-05-06 10:20 | 33.88673 | 35.46548 | 1031 ft | 131 kts | 168° |
| 2026-05-06 10:20 | 33.87869 | 35.46777 | 868 ft | 131 kts | 168° |
| 2026-05-06 10:20 | 33.86346 | 35.47234 | 552 ft | 130 kts | 167° |
| 2026-05-06 10:21 | 33.85600 | 35.47456 | 407 ft | 130 kts | 168° |
| 2026-05-06 10:21 | 33.84775 | 35.47671 | 252 ft | 129 kts | 169° |
| 2026-05-06 10:21 | 33.83971 | 35.47899 | 139 ft | 127 kts | 168° |
| 2026-05-06 10:22 | 33.82496 | 35.48308 | 92 ft | 58 kts | 167° |
| 2026-05-06 10:22 | 33.82202 | 35.48390 | 92 ft | 38 kts | 167° |
| 2026-05-06 10:22 | 33.81971 | 35.48489 | 92 ft | 33 kts | 140° |
| 2026-05-06 10:22 | 33.81807 | 35.48669 | 92 ft | 30 kts | 136° |
| 2026-05-06 10:23 | 33.81730 | 35.48894 | 92 ft | 28 kts | 106° |
| 2026-05-06 10:23 | 33.81717 | 35.48998 | 92 ft | 11 kts | 63° |
| 2026-05-06 10:23 | 33.81778 | 35.49059 | 92 ft | 12 kts | 37° |
| 2026-05-06 10:23 | 33.81853 | 35.49126 | 92 ft | 15 kts | 36° |
| 2026-05-06 10:24 | 33.81951 | 35.49207 | 92 ft | 17 kts | 36° |
| 2026-05-06 10:24 | 33.82048 | 35.49289 | 92 ft | 17 kts | 36° |
| 2026-05-06 10:24 | 33.82147 | 35.49374 | 92 ft | 17 kts | 35° |
| 2026-05-06 10:24 | 33.82243 | 35.49455 | 92 ft | 9 kts | 34° |
| 2026-05-06 10:25 | 33.82299 | 35.49449 | 92 ft | 9 kts | 310° |
| 2026-05-06 10:25 | 33.82320 | 35.49420 | 92 ft | 3 kts | 313° |
| 2026-05-06 10:25 | 33.82322 | 35.49417 | 92 ft | 0 kts | 313° |